createdAt,value
2023-01-06T00:02:56.874Z,3.07
2023-01-06T00:07:59.981Z,3.50
2023-01-06T00:13:02.645Z,3.90
2023-01-06T00:18:05.286Z,2.80
2023-01-06T00:23:07.817Z,3.10
2023-01-06T00:28:10.398Z,2.57
2023-01-06T00:33:13.070Z,3.17
2023-01-06T00:38:18.000Z,3.00
2023-01-06T00:43:22.906Z,3.00
2023-01-06T00:48:25.404Z,3.20
2023-01-06T00:53:27.979Z,2.77
2023-01-06T00:58:33.567Z,2.70
2023-01-06T01:03:37.992Z,3.00
2023-01-06T01:08:40.593Z,2.33
2023-01-06T01:13:43.111Z,3.37
2023-01-06T01:18:45.688Z,2.97
2023-01-06T01:23:48.766Z,2.83
2023-01-06T01:28:51.324Z,2.53
2023-01-06T01:33:53.861Z,2.30
2023-01-06T01:38:58.030Z,3.77
2023-01-06T01:44:21.905Z,2.70
2023-01-06T01:49:27.130Z,2.77
2023-01-06T01:54:34.251Z,2.80
2023-01-06T01:59:38.886Z,3.20
2023-01-06T02:04:45.751Z,3.50
2023-01-06T02:10:21.322Z,2.63
2023-01-06T02:15:28.462Z,2.70
2023-01-06T02:20:40.891Z,3.70
2023-01-06T02:25:49.697Z,2.70
2023-01-06T02:31:10.587Z,2.47
2023-01-06T02:36:35.140Z,2.17
2023-01-06T02:41:38.586Z,2.53
2023-01-06T02:47:18.258Z,3.00
2023-01-06T02:57:44.573Z,2.47
2023-01-06T03:02:54.698Z,2.50
2023-01-06T03:07:59.723Z,2.60
2023-01-06T03:13:35.576Z,2.43
2023-01-06T03:18:42.020Z,2.30
2023-01-06T03:23:46.090Z,2.47
2023-01-06T03:28:48.734Z,2.07
2023-01-06T03:34:09.548Z,3.00
2023-01-06T03:39:18.022Z,2.63
2023-01-06T03:44:43.908Z,2.50
2023-01-06T03:49:56.828Z,2.10
2023-01-06T03:55:06.480Z,2.97
2023-01-06T04:00:31.869Z,2.17
2023-01-06T04:05:39.731Z,1.87
2023-01-06T04:10:43.419Z,2.40
2023-01-06T04:15:46.162Z,2.07
2023-01-06T04:20:49.745Z,2.53
2023-01-06T04:25:58.204Z,2.97
2023-01-06T04:31:11.686Z,2.67
2023-01-06T04:36:16.051Z,3.07
2023-01-06T04:41:23.771Z,3.00
2023-01-06T04:46:26.411Z,2.67
2023-01-06T04:51:29.178Z,2.67
2023-01-06T04:56:31.718Z,2.23
2023-01-06T05:01:34.512Z,2.77
2023-01-06T05:06:39.478Z,2.07
2023-01-06T05:11:42.141Z,2.37
2023-01-06T05:16:44.808Z,2.93
2023-01-06T05:21:47.380Z,2.90
2023-01-06T05:26:49.936Z,2.20
2023-01-06T05:31:52.600Z,2.63
2023-01-06T05:36:56.558Z,2.57
2023-01-06T05:41:59.095Z,2.87
2023-01-06T05:47:01.639Z,2.10
2023-01-06T05:52:04.808Z,2.63
2023-01-06T05:57:10.020Z,2.13
2023-01-06T06:02:12.680Z,2.50
2023-01-06T06:07:15.305Z,2.50
2023-01-06T06:12:17.897Z,1.53
2023-01-06T06:17:20.468Z,2.60
2023-01-06T06:22:23.034Z,3.07
2023-01-06T06:27:25.617Z,3.20
2023-01-06T06:32:30.969Z,3.17
2023-01-06T06:37:33.523Z,2.87
2023-01-06T06:42:36.161Z,3.00
2023-01-06T06:47:38.675Z,2.87
2023-01-06T06:52:41.204Z,3.30
2023-01-06T06:57:43.765Z,2.87
2023-01-06T07:02:50.281Z,3.87
2023-01-06T07:07:52.849Z,2.83
2023-01-06T07:12:55.407Z,3.07
2023-01-06T07:18:02.401Z,2.77
2023-01-06T07:23:05.400Z,3.60
2023-01-06T07:28:09.537Z,2.90
2023-01-06T07:33:12.197Z,2.93
2023-01-06T07:38:14.864Z,3.90
2023-01-06T07:43:17.670Z,3.53
2023-01-06T07:48:20.291Z,4.03
2023-01-06T07:53:22.981Z,7.33
2023-01-06T07:58:25.728Z,4.73
2023-01-06T08:03:28.353Z,4.20
2023-01-06T08:08:31.041Z,3.03
2023-01-06T08:13:34.723Z,4.00
2023-01-06T08:18:38.321Z,3.50
2023-01-06T08:23:40.982Z,2.83
2023-01-06T08:28:45.686Z,4.00
2023-01-06T08:33:49.917Z,4.03
2023-01-06T08:38:52.868Z,4.03
2023-01-06T08:43:55.522Z,3.47
2023-01-06T08:48:58.679Z,4.50
2023-01-06T08:54:01.546Z,3.20
2023-01-06T08:59:05.204Z,4.37
2023-01-06T09:04:09.884Z,3.47
2023-01-06T09:09:12.619Z,3.70
2023-01-06T09:14:15.232Z,3.93
2023-01-06T09:19:18.028Z,3.17
2023-01-06T09:24:20.774Z,4.10
2023-01-06T09:29:23.496Z,4.27
2023-01-06T09:34:26.124Z,4.47
2023-01-06T09:39:28.881Z,5.03
2023-01-06T09:44:37.427Z,4.67
2023-01-06T09:49:47.277Z,5.13
2023-01-06T09:55:16.912Z,6.50
2023-01-06T10:00:38.654Z,5.22
2023-01-06T10:06:19.904Z,4.73
2023-01-06T10:11:53.157Z,4.60
2023-01-06T10:17:24.096Z,4.27
2023-01-06T10:22:36.151Z,5.17
2023-01-06T10:28:02.280Z,4.63
2023-01-06T10:33:05.768Z,6.80
2023-01-06T10:38:13.665Z,5.30
2023-01-06T10:43:22.547Z,5.77
2023-01-06T10:48:29.874Z,5.30
2023-01-06T10:53:32.788Z,6.23
2023-01-06T10:58:45.508Z,5.90
2023-01-06T11:04:10.165Z,5.90
2023-01-06T11:09:29.616Z,7.17
2023-01-06T11:14:34.174Z,6.15
2023-01-06T11:19:42.508Z,7.10
2023-01-06T11:24:53.817Z,6.60
2023-01-06T11:29:56.431Z,7.17
2023-01-06T11:35:07.051Z,9.23
2023-01-06T11:40:30.146Z,7.13
2023-01-06T11:45:40.725Z,7.47
2023-01-06T11:51:00.458Z,5.87
2023-01-06T11:56:18.351Z,4.88
2023-01-06T12:01:21.237Z,7.00
2023-01-06T12:06:34.854Z,6.17
2023-01-06T12:11:53.533Z,7.97
2023-01-06T12:17:14.074Z,6.47
2023-01-06T12:22:29.478Z,6.67
2023-01-06T12:27:41.446Z,6.60
2023-01-06T12:32:49.225Z,5.57
2023-01-06T12:38:01.043Z,6.00
2023-01-06T12:43:34.582Z,4.57
2023-01-06T12:48:51.199Z,5.37
2023-01-06T12:54:03.968Z,4.20
2023-01-06T12:59:45.487Z,5.60
2023-01-06T13:05:09.115Z,6.57
2023-01-06T13:10:37.609Z,6.40
2023-01-06T13:15:45.188Z,4.70
2023-01-06T13:20:52.037Z,5.33
2023-01-06T13:26:16.054Z,6.17
2023-01-06T13:31:41.267Z,4.37
2023-01-06T13:36:43.770Z,5.73
2023-01-06T13:41:50.604Z,6.57
2023-01-06T13:46:57.709Z,5.13
2023-01-06T13:52:00.950Z,6.23
2023-01-06T13:57:30.590Z,6.63
2023-01-06T14:02:36.110Z,6.30
2023-01-06T14:07:41.186Z,5.57
2023-01-06T14:12:48.708Z,5.63
2023-01-06T14:17:51.544Z,5.30
2023-01-06T14:23:03.803Z,5.53
2023-01-06T14:28:09.246Z,5.60
2023-01-06T14:33:27.682Z,5.83
2023-01-06T14:38:36.870Z,5.33
2023-01-06T14:43:51.865Z,5.63
2023-01-06T14:49:00.608Z,6.17
2023-01-06T14:54:19.798Z,4.37
2023-01-06T14:59:23.192Z,6.38
2023-01-06T15:04:30.328Z,6.10
2023-01-06T15:09:33.513Z,8.07
2023-01-06T15:14:36.136Z,5.40
2023-01-06T15:19:42.726Z,6.27
2023-01-06T15:24:45.330Z,5.13
2023-01-06T15:29:56.467Z,5.67
2023-01-06T15:34:59.671Z,5.50
2023-01-06T15:40:04.754Z,6.50
2023-01-06T15:45:24.008Z,5.40
2023-01-06T15:50:29.881Z,5.45
2023-01-06T15:55:40.511Z,6.07
2023-01-06T16:00:50.214Z,7.10
2023-01-06T16:11:17.371Z,6.10
2023-01-06T16:16:19.957Z,4.57
2023-01-06T16:21:32.195Z,6.53
2023-01-06T16:26:42.758Z,5.50
2023-01-06T16:31:45.481Z,6.00
2023-01-06T16:36:49.485Z,6.20
2023-01-06T16:42:01.378Z,6.63
2023-01-06T16:47:09.287Z,6.20
2023-01-06T16:52:11.972Z,6.57
2023-01-06T16:57:14.803Z,5.27
2023-01-06T17:02:19.390Z,7.07
2023-01-06T17:07:24.677Z,5.13
2023-01-06T17:12:48.358Z,7.03
2023-01-06T17:17:51.095Z,5.60
2023-01-06T17:22:53.824Z,4.93
2023-01-06T17:27:56.436Z,5.07
2023-01-06T17:32:59.041Z,4.97
2023-01-06T17:38:13.143Z,5.10
2023-01-06T17:43:27.486Z,6.13
2023-01-06T17:48:30.151Z,6.30
2023-01-06T17:53:54.410Z,5.73
2023-01-06T17:59:05.321Z,6.87
2023-01-06T18:04:14.232Z,6.23
2023-01-06T18:09:21.206Z,5.43
2023-01-06T18:14:42.077Z,5.27
2023-01-06T18:19:44.723Z,4.73
2023-01-06T18:24:50.298Z,5.37
2023-01-06T18:29:56.234Z,5.40
2023-01-06T18:35:03.036Z,4.37
2023-01-06T18:40:11.275Z,4.90
2023-01-06T18:45:24.519Z,5.25
2023-01-06T18:50:38.557Z,5.30
2023-01-06T18:55:51.061Z,5.30
2023-01-06T19:01:03.558Z,5.77
2023-01-06T19:06:09.297Z,4.73
2023-01-06T19:11:16.316Z,5.57
2023-01-06T19:16:34.733Z,5.77
2023-01-06T19:21:38.471Z,6.07
2023-01-06T19:26:41.968Z,5.43
2023-01-06T19:31:55.888Z,5.80
2023-01-06T19:36:58.686Z,6.10
2023-01-06T19:42:27.343Z,6.13
2023-01-06T19:47:42.375Z,4.97
2023-01-06T19:52:45.219Z,5.97
2023-01-06T19:57:52.583Z,5.30
2023-01-06T20:02:58.365Z,4.70
2023-01-06T20:08:01.214Z,4.77
2023-01-06T20:13:05.429Z,5.20
2023-01-06T20:18:08.017Z,5.23
2023-01-06T20:23:11.354Z,5.17
2023-01-06T20:28:13.941Z,5.67
2023-01-06T20:33:16.687Z,5.83
2023-01-06T20:38:21.300Z,4.80
2023-01-06T20:43:24.178Z,5.03
2023-01-06T20:48:26.894Z,4.70
2023-01-06T20:53:29.623Z,5.47
2023-01-06T20:58:32.410Z,4.73
2023-01-06T21:03:35.087Z,4.80
2023-01-06T21:08:37.749Z,4.23
2023-01-06T21:13:40.310Z,5.83
2023-01-06T21:18:42.848Z,4.97
2023-01-06T21:23:45.434Z,4.30
2023-01-06T21:28:48.066Z,4.17
2023-01-06T21:33:50.677Z,4.70
2023-01-06T21:38:53.315Z,3.87
2023-01-06T21:43:55.832Z,4.87
2023-01-06T21:48:58.398Z,5.03
2023-01-06T21:54:01.990Z,4.70
2023-01-06T21:59:04.677Z,4.73
2023-01-06T22:04:07.306Z,3.87
2023-01-06T22:09:12.722Z,5.00
2023-01-06T22:14:17.327Z,4.37
2023-01-06T22:19:19.956Z,4.47
2023-01-06T22:24:23.102Z,4.50
2023-01-06T22:29:25.666Z,4.77
2023-01-06T22:34:28.558Z,5.13
2023-01-06T22:39:31.265Z,5.57
2023-01-06T22:44:33.906Z,4.47
2023-01-06T22:49:36.542Z,4.47
2023-01-06T22:54:39.236Z,4.47
2023-01-06T22:59:41.828Z,5.03
2023-01-06T23:10:13.234Z,4.97
2023-01-06T23:15:15.872Z,4.70
2023-01-06T23:20:18.528Z,4.27
2023-01-06T23:25:21.199Z,5.50
2023-01-06T23:30:23.743Z,4.87
2023-01-06T23:35:26.344Z,4.60
2023-01-06T23:40:28.933Z,4.80
2023-01-06T23:45:31.582Z,4.67
2023-01-06T23:50:34.193Z,4.93
2023-01-06T23:55:36.711Z,4.37
